Terminal Aerodrome Forecast
Issued by NWS

Home | Current Version | Previous Version | Text Only | Print | Product List | Glossary On
Versions: 1 2 3 4 5 6 7 8 9 10 11 12 13 14 15 16 17
000
FTUS43 KILX 281120
TAFCMI
TAF
KCMI 281120Z 2812/2912 15006KT P6SM BKN250
      TEMPO 2812/2814 4SM BR
     FM281800 16009KT P6SM SCT035 BKN150
     FM290100 14005KT P6SM BKN120=

USA.gov is the U.S. government's official web portal to all federal, state and local government web resources and services.